EKVH weather

Vesthimmerlands Flyveplads
Aars, North Jutland, Denmark

Public forecast

Using degrees Celsius for public forecast. Weather courtesy of forecast.io.

Closest aviation weather report (METAR) to Vesthimmerlands Flyveplads

Closest report is Aalborg Airport, 19.5 nm (36.2 km) NE. Retrieved 2019/12/15 07:20 UTC (23 minutes ago):

EKYT 150720Z AUTO 16008KT 9999 FEW130/// BKN150/// 03/02 Q0984

Closest aviation forecast (TAF) to Vesthimmerlands Flyveplads

Closest forecast is Aalborg Airport, 19.5 nm (36.2 km) NE. Retrieved 2019/12/15 09:25 UTC (0 seconds ago):

TAF EKYT 150819Z 1509/1609 22012KT 9999 BKN015 BECMG 1509/1511 15015G25KT 2500 RASN BKN004 BECMG 1511/1513 21015KT 9999 NSW BKN018 TEMPO 1513/1518 22015G32KT 4000 SHRA BKN008 BKN012CB TEMPO 1518/1523 6000 -SHRA BKN015CB TEMPO 1607/1609 4000 SHRA BKN015CB